sensor_id;sensor_type;location;lat;lon;timestamp;P1;durP1;ratioP1;P2;durP2;ratioP2
56051;SDS011;41919;42.648;23.384;2022-12-31T00:01:29;21.88;;;12.07;;
56051;SDS011;41919;42.648;23.384;2022-12-31T00:03:55;23.52;;;12.02;;
56051;SDS011;41919;42.648;23.384;2022-12-31T00:06:25;18.20;;;11.68;;
56051;SDS011;41919;42.648;23.384;2022-12-31T00:08:52;21.75;;;11.18;;
56051;SDS011;41919;42.648;23.384;2022-12-31T00:11:19;23.80;;;11.27;;
56051;SDS011;41919;42.648;23.384;2022-12-31T00:13:45;19.83;;;11.10;;
56051;SDS011;41919;42.648;23.384;2022-12-31T00:16:12;21.92;;;11.77;;
56051;SDS011;41919;42.648;23.384;2022-12-31T00:18:42;23.70;;;12.20;;
56051;SDS011;41919;42.648;23.384;2022-12-31T00:21:12;23.90;;;11.85;;
56051;SDS011;41919;42.648;23.384;2022-12-31T00:23:38;26.23;;;11.90;;
56051;SDS011;41919;42.648;23.384;2022-12-31T00:26:04;22.92;;;10.20;;
56051;SDS011;41919;42.648;23.384;2022-12-31T00:28:32;19.60;;;10.10;;
56051;SDS011;41919;42.648;23.384;2022-12-31T00:31:08;20.15;;;10.65;;
56051;SDS011;41919;42.648;23.384;2022-12-31T00:33:37;23.02;;;10.27;;
56051;SDS011;41919;42.648;23.384;2022-12-31T00:36:14;14.70;;;7.78;;
56051;SDS011;41919;42.648;23.384;2022-12-31T00:38:41;12.77;;;6.22;;
56051;SDS011;41919;42.648;23.384;2022-12-31T00:41:09;12.95;;;6.53;;
56051;SDS011;41919;42.648;23.384;2022-12-31T00:43:35;10.43;;;5.95;;
56051;SDS011;41919;42.648;23.384;2022-12-31T00:46:01;12.20;;;5.82;;
56051;SDS011;41919;42.648;23.384;2022-12-31T00:48:26;10.98;;;5.53;;
56051;SDS011;41919;42.648;23.384;2022-12-31T00:50:53;11.20;;;6.32;;
56051;SDS011;41919;42.648;23.384;2022-12-31T00:53:19;11.48;;;6.22;;
56051;SDS011;41919;42.648;23.384;2022-12-31T00:55:45;9.38;;;5.53;;
56051;SDS011;41919;42.648;23.384;2022-12-31T00:58:11;11.65;;;5.95;;
56051;SDS011;41919;42.648;23.384;2022-12-31T01:00:37;13.43;;;6.45;;
56051;SDS011;41919;42.648;23.384;2022-12-31T01:03:03;11.45;;;6.82;;
56051;SDS011;41919;42.648;23.384;2022-12-31T01:05:29;13.48;;;6.75;;
56051;SDS011;41919;42.648;23.384;2022-12-31T01:07:55;14.02;;;6.93;;
56051;SDS011;41919;42.648;23.384;2022-12-31T01:10:21;27.23;;;14.57;;
56051;SDS011;41919;42.648;23.384;2022-12-31T01:15:41;39.03;;;15.90;;
56051;SDS011;41919;42.648;23.384;2022-12-31T01:18:07;34.47;;;15.23;;
56051;SDS011;41919;42.648;23.384;2022-12-31T01:20:36;34.75;;;15.95;;
56051;SDS011;41919;42.648;23.384;2022-12-31T01:23:03;32.08;;;16.40;;
56051;SDS011;41919;42.648;23.384;2022-12-31T01:25:29;31.42;;;16.30;;
56051;SDS011;41919;42.648;23.384;2022-12-31T01:27:55;31.38;;;15.77;;
56051;SDS011;41919;42.648;23.384;2022-12-31T01:30:20;33.38;;;15.35;;
56051;SDS011;41919;42.648;23.384;2022-12-31T01:32:46;27.45;;;14.40;;
56051;SDS011;41919;42.648;23.384;2022-12-31T01:35:11;28.67;;;14.43;;
56051;SDS011;41919;42.648;23.384;2022-12-31T01:37:37;28.65;;;14.77;;
56051;SDS011;41919;42.648;23.384;2022-12-31T01:40:03;31.77;;;14.82;;
56051;SDS011;41919;42.648;23.384;2022-12-31T01:42:28;25.42;;;12.85;;
56051;SDS011;41919;42.648;23.384;2022-12-31T01:44:54;29.92;;;13.45;;
56051;SDS011;41919;42.648;23.384;2022-12-31T01:47:54;26.20;;;13.15;;
56051;SDS011;41919;42.648;23.384;2022-12-31T01:50:27;33.40;;;13.93;;
56051;SDS011;41919;42.648;23.384;2022-12-31T01:52:58;26.85;;;14.00;;
56051;SDS011;41919;42.648;23.384;2022-12-31T01:55:31;25.75;;;12.93;;
56051;SDS011;41919;42.648;23.384;2022-12-31T01:58:04;24.75;;;11.02;;
56051;SDS011;41919;42.648;23.384;2022-12-31T02:00:33;17.92;;;9.80;;
56051;SDS011;41919;42.648;23.384;2022-12-31T02:02:58;21.65;;;10.50;;
56051;SDS011;41919;42.648;23.384;2022-12-31T02:10:44;26.95;;;11.40;;
56051;SDS011;41919;42.648;23.384;2022-12-31T02:13:10;23.00;;;11.35;;
56051;SDS011;41919;42.648;23.384;2022-12-31T02:18:26;21.55;;;11.10;;
56051;SDS011;41919;42.648;23.384;2022-12-31T02:35:00;21.75;;;10.88;;
56051;SDS011;41919;42.648;23.384;2022-12-31T02:37:32;21.35;;;11.52;;
56051;SDS011;41919;42.648;23.384;2022-12-31T02:40:01;18.45;;;10.00;;
56051;SDS011;41919;42.648;23.384;2022-12-31T02:42:30;19.95;;;11.00;;
56051;SDS011;41919;42.648;23.384;2022-12-31T02:44:56;19.80;;;10.27;;
56051;SDS011;41919;42.648;23.384;2022-12-31T02:49:56;19.98;;;10.55;;
56051;SDS011;41919;42.648;23.384;2022-12-31T03:00:10;17.40;;;10.18;;
56051;SDS011;41919;42.648;23.384;2022-12-31T03:02:57;21.60;;;10.48;;
56051;SDS011;41919;42.648;23.384;2022-12-31T03:05:26;20.83;;;10.48;;
56051;SDS011;41919;42.648;23.384;2022-12-31T03:07:53;20.00;;;9.88;;
56051;SDS011;41919;42.648;23.384;2022-12-31T03:10:19;17.08;;;9.75;;
56051;SDS011;41919;42.648;23.384;2022-12-31T03:12:44;18.52;;;10.75;;
56051;SDS011;41919;42.648;23.384;2022-12-31T03:15:33;22.15;;;9.98;;
56051;SDS011;41919;42.648;23.384;2022-12-31T03:18:00;19.08;;;10.30;;
56051;SDS011;41919;42.648;23.384;2022-12-31T03:23:24;16.40;;;9.87;;
56051;SDS011;41919;42.648;23.384;2022-12-31T03:25:53;15.25;;;8.05;;
56051;SDS011;41919;42.648;23.384;2022-12-31T03:28:21;14.80;;;7.45;;
56051;SDS011;41919;42.648;23.384;2022-12-31T03:30:50;11.93;;;7.30;;
56051;SDS011;41919;42.648;23.384;2022-12-31T03:33:18;12.98;;;7.75;;
56051;SDS011;41919;42.648;23.384;2022-12-31T03:35:45;15.90;;;8.50;;
56051;SDS011;41919;42.648;23.384;2022-12-31T03:38:12;11.23;;;6.38;;
56051;SDS011;41919;42.648;23.384;2022-12-31T03:40:38;12.77;;;7.03;;
56051;SDS011;41919;42.648;23.384;2022-12-31T03:43:08;14.85;;;5.93;;
56051;SDS011;41919;42.648;23.384;2022-12-31T03:45:34;12.63;;;6.97;;
56051;SDS011;41919;42.648;23.384;2022-12-31T03:48:03;10.98;;;6.03;;
56051;SDS011;41919;42.648;23.384;2022-12-31T03:50:30;12.80;;;6.75;;
56051;SDS011;41919;42.648;23.384;2022-12-31T03:52:55;13.70;;;6.43;;
56051;SDS011;41919;42.648;23.384;2022-12-31T03:55:21;11.48;;;6.00;;
56051;SDS011;41919;42.648;23.384;2022-12-31T03:57:47;12.10;;;6.13;;
56051;SDS011;41919;42.648;23.384;2022-12-31T04:00:13;12.85;;;6.15;;
56051;SDS011;41919;42.648;23.384;2022-12-31T04:02:42;10.25;;;6.22;;
56051;SDS011;41919;42.648;23.384;2022-12-31T04:05:08;11.68;;;6.75;;
56051;SDS011;41919;42.648;23.384;2022-12-31T04:07:34;13.00;;;6.47;;
56051;SDS011;41919;42.648;23.384;2022-12-31T04:10:00;10.25;;;5.93;;
56051;SDS011;41919;42.648;23.384;2022-12-31T04:12:26;11.30;;;6.20;;
56051;SDS011;41919;42.648;23.384;2022-12-31T04:14:51;9.13;;;6.13;;
56051;SDS011;41919;42.648;23.384;2022-12-31T04:17:16;10.55;;;5.43;;
56051;SDS011;41919;42.648;23.384;2022-12-31T04:19:42;9.93;;;5.93;;
56051;SDS011;41919;42.648;23.384;2022-12-31T04:22:07;9.50;;;6.10;;
56051;SDS011;41919;42.648;23.384;2022-12-31T04:24:33;12.18;;;6.47;;
56051;SDS011;41919;42.648;23.384;2022-12-31T04:26:58;10.77;;;6.53;;
56051;SDS011;41919;42.648;23.384;2022-12-31T04:29:24;12.98;;;6.95;;
56051;SDS011;41919;42.648;23.384;2022-12-31T04:31:49;11.85;;;7.45;;
56051;SDS011;41919;42.648;23.384;2022-12-31T04:34:15;14.98;;;7.38;;
56051;SDS011;41919;42.648;23.384;2022-12-31T04:36:40;18.38;;;8.25;;
56051;SDS011;41919;42.648;23.384;2022-12-31T04:39:06;18.48;;;9.40;;
56051;SDS011;41919;42.648;23.384;2022-12-31T04:41:31;20.25;;;10.45;;
56051;SDS011;41919;42.648;23.384;2022-12-31T04:43:57;20.65;;;9.88;;
56051;SDS011;41919;42.648;23.384;2022-12-31T04:46:27;18.48;;;9.43;;
56051;SDS011;41919;42.648;23.384;2022-12-31T04:48:55;18.30;;;9.65;;
56051;SDS011;41919;42.648;23.384;2022-12-31T04:51:20;20.83;;;10.00;;
56051;SDS011;41919;42.648;23.384;2022-12-31T04:53:47;22.80;;;11.60;;
56051;SDS011;41919;42.648;23.384;2022-12-31T04:56:13;21.65;;;11.63;;
56051;SDS011;41919;42.648;23.384;2022-12-31T04:58:39;24.77;;;12.95;;
56051;SDS011;41919;42.648;23.384;2022-12-31T05:01:04;27.65;;;14.38;;
56051;SDS011;41919;42.648;23.384;2022-12-31T05:03:31;34.92;;;17.75;;
56051;SDS011;41919;42.648;23.384;2022-12-31T05:06:04;45.42;;;20.75;;
56051;SDS011;41919;42.648;23.384;2022-12-31T05:08:31;46.17;;;23.25;;
56051;SDS011;41919;42.648;23.384;2022-12-31T05:10:57;48.75;;;22.35;;
56051;SDS011;41919;42.648;23.384;2022-12-31T05:13:23;51.25;;;23.60;;
56051;SDS011;41919;42.648;23.384;2022-12-31T05:15:48;36.70;;;16.35;;
56051;SDS011;41919;42.648;23.384;2022-12-31T05:18:14;25.65;;;13.18;;
56051;SDS011;41919;42.648;23.384;2022-12-31T05:20:39;31.48;;;15.43;;
56051;SDS011;41919;42.648;23.384;2022-12-31T05:23:05;45.22;;;18.95;;
56051;SDS011;41919;42.648;23.384;2022-12-31T05:25:31;30.25;;;13.95;;
56051;SDS011;41919;42.648;23.384;2022-12-31T05:27:56;29.55;;;14.52;;
56051;SDS011;41919;42.648;23.384;2022-12-31T05:30:22;34.28;;;16.27;;
56051;SDS011;41919;42.648;23.384;2022-12-31T05:32:48;74.22;;;29.42;;
56051;SDS011;41919;42.648;23.384;2022-12-31T05:35:14;38.90;;;20.30;;
56051;SDS011;41919;42.648;23.384;2022-12-31T05:37:39;34.47;;;17.98;;
56051;SDS011;41919;42.648;23.384;2022-12-31T05:40:05;39.83;;;16.65;;
56051;SDS011;41919;42.648;23.384;2022-12-31T05:42:30;35.30;;;17.98;;
56051;SDS011;41919;42.648;23.384;2022-12-31T05:44:56;35.45;;;17.23;;
56051;SDS011;41919;42.648;23.384;2022-12-31T05:47:21;32.55;;;16.98;;
56051;SDS011;41919;42.648;23.384;2022-12-31T05:49:47;36.83;;;16.92;;
56051;SDS011;41919;42.648;23.384;2022-12-31T05:52:12;39.35;;;16.80;;
56051;SDS011;41919;42.648;23.384;2022-12-31T05:54:38;35.72;;;16.83;;
56051;SDS011;41919;42.648;23.384;2022-12-31T05:57:03;32.25;;;16.17;;
56051;SDS011;41919;42.648;23.384;2022-12-31T05:59:29;30.85;;;13.80;;
56051;SDS011;41919;42.648;23.384;2022-12-31T06:01:55;29.15;;;14.00;;
56051;SDS011;41919;42.648;23.384;2022-12-31T06:04:21;28.77;;;13.73;;
56051;SDS011;41919;42.648;23.384;2022-12-31T06:06:47;29.02;;;13.70;;
56051;SDS011;41919;42.648;23.384;2022-12-31T06:09:13;25.50;;;11.80;;
56051;SDS011;41919;42.648;23.384;2022-12-31T06:11:39;18.45;;;9.45;;
56051;SDS011;41919;42.648;23.384;2022-12-31T06:14:05;18.58;;;9.02;;
56051;SDS011;41919;42.648;23.384;2022-12-31T06:16:30;17.58;;;8.73;;
56051;SDS011;41919;42.648;23.384;2022-12-31T06:18:56;14.98;;;8.40;;
56051;SDS011;41919;42.648;23.384;2022-12-31T06:21:21;28.33;;;11.70;;
56051;SDS011;41919;42.648;23.384;2022-12-31T06:23:47;33.58;;;13.27;;
56051;SDS011;41919;42.648;23.384;2022-12-31T06:26:13;13.88;;;6.80;;
56051;SDS011;41919;42.648;23.384;2022-12-31T06:28:39;9.05;;;5.35;;
56051;SDS011;41919;42.648;23.384;2022-12-31T06:31:06;9.52;;;5.00;;
56051;SDS011;41919;42.648;23.384;2022-12-31T06:33:33;8.95;;;5.03;;
56051;SDS011;41919;42.648;23.384;2022-12-31T06:36:00;7.53;;;5.20;;
56051;SDS011;41919;42.648;23.384;2022-12-31T06:38:27;8.43;;;5.07;;
56051;SDS011;41919;42.648;23.384;2022-12-31T06:40:55;7.97;;;5.05;;
56051;SDS011;41919;42.648;23.384;2022-12-31T06:43:20;7.80;;;5.50;;
56051;SDS011;41919;42.648;23.384;2022-12-31T06:45:46;9.15;;;4.97;;
56051;SDS011;41919;42.648;23.384;2022-12-31T06:48:12;11.75;;;6.05;;
56051;SDS011;41919;42.648;23.384;2022-12-31T06:50:37;7.28;;;5.03;;
56051;SDS011;41919;42.648;23.384;2022-12-31T06:53:04;10.07;;;4.90;;
56051;SDS011;41919;42.648;23.384;2022-12-31T06:55:30;8.82;;;6.10;;
56051;SDS011;41919;42.648;23.384;2022-12-31T06:57:56;11.63;;;7.47;;
56051;SDS011;41919;42.648;23.384;2022-12-31T07:00:21;11.88;;;6.78;;
56051;SDS011;41919;42.648;23.384;2022-12-31T07:03:12;10.60;;;5.65;;
56051;SDS011;41919;42.648;23.384;2022-12-31T07:05:46;8.88;;;7.07;;
56051;SDS011;41919;42.648;23.384;2022-12-31T07:21:52;8.85;;;6.05;;
56051;SDS011;41919;42.648;23.384;2022-12-31T07:24:19;6.50;;;5.55;;
56051;SDS011;41919;42.648;23.384;2022-12-31T07:46:10;9.32;;;6.40;;
56051;SDS011;41919;42.648;23.384;2022-12-31T07:48:41;10.63;;;7.55;;
56051;SDS011;41919;42.648;23.384;2022-12-31T07:51:09;9.65;;;6.90;;
56051;SDS011;41919;42.648;23.384;2022-12-31T07:53:36;11.93;;;7.65;;
56051;SDS011;41919;42.648;23.384;2022-12-31T07:56:02;11.60;;;7.07;;
56051;SDS011;41919;42.648;23.384;2022-12-31T08:01:03;9.57;;;6.32;;
56051;SDS011;41919;42.648;23.384;2022-12-31T08:03:43;9.77;;;5.80;;
56051;SDS011;41919;42.648;23.384;2022-12-31T08:09:15;6.38;;;5.00;;
56051;SDS011;41919;42.648;23.384;2022-12-31T08:12:00;8.88;;;5.68;;
56051;SDS011;41919;42.648;23.384;2022-12-31T08:14:27;7.57;;;5.55;;
56051;SDS011;41919;42.648;23.384;2022-12-31T08:16:53;7.72;;;5.63;;
56051;SDS011;41919;42.648;23.384;2022-12-31T08:19:27;9.40;;;6.47;;
56051;SDS011;41919;42.648;23.384;2022-12-31T08:29:51;8.57;;;7.15;;
56051;SDS011;41919;42.648;23.384;2022-12-31T08:35:21;8.82;;;6.63;;
56051;SDS011;41919;42.648;23.384;2022-12-31T08:38:02;9.73;;;6.75;;
56051;SDS011;41919;42.648;23.384;2022-12-31T08:40:53;8.55;;;7.18;;
56051;SDS011;41919;42.648;23.384;2022-12-31T08:49:13;11.45;;;9.13;;
56051;SDS011;41919;42.648;23.384;2022-12-31T08:51:39;11.05;;;8.90;;
56051;SDS011;41919;42.648;23.384;2022-12-31T08:54:05;10.88;;;9.77;;
56051;SDS011;41919;42.648;23.384;2022-12-31T08:59:14;10.50;;;9.40;;
56051;SDS011;41919;42.648;23.384;2022-12-31T09:02:07;11.27;;;8.85;;
56051;SDS011;41919;42.648;23.384;2022-12-31T09:07:40;13.30;;;9.70;;
56051;SDS011;41919;42.648;23.384;2022-12-31T09:18:15;16.83;;;14.32;;
56051;SDS011;41919;42.648;23.384;2022-12-31T09:20:41;23.50;;;15.85;;
56051;SDS011;41919;42.648;23.384;2022-12-31T09:23:06;20.75;;;15.63;;
56051;SDS011;41919;42.648;23.384;2022-12-31T09:25:32;24.05;;;17.15;;
56051;SDS011;41919;42.648;23.384;2022-12-31T09:28:19;20.33;;;14.95;;
56051;SDS011;41919;42.648;23.384;2022-12-31T09:36:48;20.85;;;15.90;;
56051;SDS011;41919;42.648;23.384;2022-12-31T09:47:25;27.75;;;19.77;;
56051;SDS011;41919;42.648;23.384;2022-12-31T09:55:50;25.65;;;17.38;;
56051;SDS011;41919;42.648;23.384;2022-12-31T10:07:20;28.80;;;18.98;;
56051;SDS011;41919;42.648;23.384;2022-12-31T10:15:29;31.25;;;18.17;;
56051;SDS011;41919;42.648;23.384;2022-12-31T10:43:58;17.67;;;10.80;;
56051;SDS011;41919;42.648;23.384;2022-12-31T10:53:01;15.30;;;9.23;;
56051;SDS011;41919;42.648;23.384;2022-12-31T10:55:38;17.65;;;10.32;;
56051;SDS011;41919;42.648;23.384;2022-12-31T11:09:19;16.73;;;10.73;;
56051;SDS011;41919;42.648;23.384;2022-12-31T11:14:50;22.83;;;9.50;;
56051;SDS011;41919;42.648;23.384;2022-12-31T11:17:30;18.45;;;10.48;;
56051;SDS011;41919;42.648;23.384;2022-12-31T11:38:27;22.92;;;10.95;;
56051;SDS011;41919;42.648;23.384;2022-12-31T11:41:15;17.77;;;10.57;;
56051;SDS011;41919;42.648;23.384;2022-12-31T11:43:57;18.75;;;10.90;;
56051;SDS011;41919;42.648;23.384;2022-12-31T12:00:01;18.33;;;10.32;;
56051;SDS011;41919;42.648;23.384;2022-12-31T12:02:37;19.70;;;10.63;;
56051;SDS011;41919;42.648;23.384;2022-12-31T12:05:12;22.55;;;12.05;;
56051;SDS011;41919;42.648;23.384;2022-12-31T12:07:39;19.50;;;10.52;;
56051;SDS011;41919;42.648;23.384;2022-12-31T12:12:50;19.65;;;11.77;;
56051;SDS011;41919;42.648;23.384;2022-12-31T12:15:19;21.30;;;11.93;;
56051;SDS011;41919;42.648;23.384;2022-12-31T12:17:51;19.83;;;11.77;;
56051;SDS011;41919;42.648;23.384;2022-12-31T12:20:20;21.10;;;12.30;;
56051;SDS011;41919;42.648;23.384;2022-12-31T12:22:53;26.05;;;12.85;;
56051;SDS011;41919;42.648;23.384;2022-12-31T12:25:21;23.35;;;12.32;;
56051;SDS011;41919;42.648;23.384;2022-12-31T12:27:49;23.83;;;13.57;;
56051;SDS011;41919;42.648;23.384;2022-12-31T12:30:23;21.65;;;12.68;;
56051;SDS011;41919;42.648;23.384;2022-12-31T12:32:54;23.70;;;13.02;;
56051;SDS011;41919;42.648;23.384;2022-12-31T12:40:31;23.98;;;12.82;;
56051;SDS011;41919;42.648;23.384;2022-12-31T12:42:58;21.83;;;12.82;;
56051;SDS011;41919;42.648;23.384;2022-12-31T12:45:25;23.48;;;12.85;;
56051;SDS011;41919;42.648;23.384;2022-12-31T12:47:54;19.60;;;11.60;;
56051;SDS011;41919;42.648;23.384;2022-12-31T12:50:31;19.08;;;11.52;;
56051;SDS011;41919;42.648;23.384;2022-12-31T12:53:06;21.98;;;12.23;;
56051;SDS011;41919;42.648;23.384;2022-12-31T12:55:58;21.88;;;12.10;;
56051;SDS011;41919;42.648;23.384;2022-12-31T13:04:07;20.05;;;12.27;;
56051;SDS011;41919;42.648;23.384;2022-12-31T13:17:29;22.70;;;13.38;;
56051;SDS011;41919;42.648;23.384;2022-12-31T13:20:18;23.27;;;13.27;;
56051;SDS011;41919;42.648;23.384;2022-12-31T13:22:55;24.92;;;13.13;;
56051;SDS011;41919;42.648;23.384;2022-12-31T13:25:42;24.73;;;13.80;;
56051;SDS011;41919;42.648;23.384;2022-12-31T13:28:30;24.20;;;13.27;;
56051;SDS011;41919;42.648;23.384;2022-12-31T13:31:01;26.58;;;14.18;;
56051;SDS011;41919;42.648;23.384;2022-12-31T13:33:35;21.20;;;12.05;;
56051;SDS011;41919;42.648;23.384;2022-12-31T13:36:07;25.10;;;12.32;;
56051;SDS011;41919;42.648;23.384;2022-12-31T13:38:39;23.40;;;12.60;;
56051;SDS011;41919;42.648;23.384;2022-12-31T13:41:14;22.90;;;12.73;;
56051;SDS011;41919;42.648;23.384;2022-12-31T13:43:57;32.42;;;13.30;;
56051;SDS011;41919;42.648;23.384;2022-12-31T13:46:36;22.15;;;13.10;;
56051;SDS011;41919;42.648;23.384;2022-12-31T13:49:12;22.60;;;12.25;;
56051;SDS011;41919;42.648;23.384;2022-12-31T13:51:46;22.85;;;12.55;;
56051;SDS011;41919;42.648;23.384;2022-12-31T14:00:18;21.63;;;11.93;;
56051;SDS011;41919;42.648;23.384;2022-12-31T14:02:49;27.90;;;14.43;;
56051;SDS011;41919;42.648;23.384;2022-12-31T14:08:05;51.95;;;25.33;;
56051;SDS011;41919;42.648;23.384;2022-12-31T14:10:44;52.70;;;26.10;;
56051;SDS011;41919;42.648;23.384;2022-12-31T14:16:19;21.48;;;12.50;;
56051;SDS011;41919;42.648;23.384;2022-12-31T14:18:57;25.38;;;12.85;;
56051;SDS011;41919;42.648;23.384;2022-12-31T14:26:51;22.20;;;12.38;;
56051;SDS011;41919;42.648;23.384;2022-12-31T14:32:36;26.08;;;14.65;;
56051;SDS011;41919;42.648;23.384;2022-12-31T14:40:44;24.38;;;13.00;;
56051;SDS011;41919;42.648;23.384;2022-12-31T14:51:26;22.50;;;13.18;;
56051;SDS011;41919;42.648;23.384;2022-12-31T14:53:53;25.50;;;13.13;;
56051;SDS011;41919;42.648;23.384;2022-12-31T14:56:40;22.88;;;13.02;;
56051;SDS011;41919;42.648;23.384;2022-12-31T14:59:27;29.58;;;13.15;;
56051;SDS011;41919;42.648;23.384;2022-12-31T15:01:55;23.85;;;13.80;;
56051;SDS011;41919;42.648;23.384;2022-12-31T15:04:31;25.80;;;13.55;;
56051;SDS011;41919;42.648;23.384;2022-12-31T15:07:21;27.60;;;15.00;;
56051;SDS011;41919;42.648;23.384;2022-12-31T15:12:49;24.05;;;14.50;;
56051;SDS011;41919;42.648;23.384;2022-12-31T15:18:17;30.70;;;15.85;;
56051;SDS011;41919;42.648;23.384;2022-12-31T15:21:40;29.92;;;14.73;;
56051;SDS011;41919;42.648;23.384;2022-12-31T15:26:59;30.13;;;14.75;;
56051;SDS011;41919;42.648;23.384;2022-12-31T15:29:28;24.05;;;13.57;;
56051;SDS011;41919;42.648;23.384;2022-12-31T15:31:54;28.38;;;14.90;;
56051;SDS011;41919;42.648;23.384;2022-12-31T15:34:27;29.15;;;15.13;;
56051;SDS011;41919;42.648;23.384;2022-12-31T15:36:59;28.02;;;14.32;;
56051;SDS011;41919;42.648;23.384;2022-12-31T15:41:55;32.38;;;15.70;;
56051;SDS011;41919;42.648;23.384;2022-12-31T15:45:04;33.08;;;16.30;;
56051;SDS011;41919;42.648;23.384;2022-12-31T15:47:26;25.20;;;15.37;;
56051;SDS011;41919;42.648;23.384;2022-12-31T15:49:55;35.85;;;16.10;;
56051;SDS011;41919;42.648;23.384;2022-12-31T15:52:32;27.02;;;13.93;;
56051;SDS011;41919;42.648;23.384;2022-12-31T15:55:07;25.67;;;14.65;;
56051;SDS011;41919;42.648;23.384;2022-12-31T15:57:46;33.67;;;15.77;;
56051;SDS011;41919;42.648;23.384;2022-12-31T16:00:16;28.90;;;13.65;;
56051;SDS011;41919;42.648;23.384;2022-12-31T16:02:43;29.85;;;13.60;;
56051;SDS011;41919;42.648;23.384;2022-12-31T16:05:20;25.80;;;12.52;;
56051;SDS011;41919;42.648;23.384;2022-12-31T16:07:47;29.83;;;14.38;;
56051;SDS011;41919;42.648;23.384;2022-12-31T16:10:20;28.88;;;14.00;;
56051;SDS011;41919;42.648;23.384;2022-12-31T16:12:49;27.35;;;15.98;;
56051;SDS011;41919;42.648;23.384;2022-12-31T16:15:20;24.58;;;13.68;;
56051;SDS011;41919;42.648;23.384;2022-12-31T16:17:59;29.83;;;13.90;;
56051;SDS011;41919;42.648;23.384;2022-12-31T16:20:30;24.58;;;11.48;;
56051;SDS011;41919;42.648;23.384;2022-12-31T16:22:58;23.33;;;13.13;;
56051;SDS011;41919;42.648;23.384;2022-12-31T16:25:27;29.65;;;15.70;;
56051;SDS011;41919;42.648;23.384;2022-12-31T16:27:54;22.95;;;11.57;;
56051;SDS011;41919;42.648;23.384;2022-12-31T16:30:21;20.10;;;10.60;;
56051;SDS011;41919;42.648;23.384;2022-12-31T16:32:47;17.50;;;9.43;;
56051;SDS011;41919;42.648;23.384;2022-12-31T16:35:27;17.55;;;7.60;;
56051;SDS011;41919;42.648;23.384;2022-12-31T16:40:37;14.43;;;7.75;;
56051;SDS011;41919;42.648;23.384;2022-12-31T16:43:03;14.50;;;8.18;;
56051;SDS011;41919;42.648;23.384;2022-12-31T16:45:56;15.52;;;8.40;;
56051;SDS011;41919;42.648;23.384;2022-12-31T16:48:31;17.10;;;7.78;;
56051;SDS011;41919;42.648;23.384;2022-12-31T16:50:57;14.70;;;8.32;;
56051;SDS011;41919;42.648;23.384;2022-12-31T16:53:23;17.05;;;9.07;;
56051;SDS011;41919;42.648;23.384;2022-12-31T16:56:14;16.33;;;8.32;;
56051;SDS011;41919;42.648;23.384;2022-12-31T16:58:43;15.75;;;8.35;;
56051;SDS011;41919;42.648;23.384;2022-12-31T17:01:12;13.60;;;7.75;;
56051;SDS011;41919;42.648;23.384;2022-12-31T17:03:51;13.00;;;7.95;;
56051;SDS011;41919;42.648;23.384;2022-12-31T17:06:23;14.82;;;6.78;;
56051;SDS011;41919;42.648;23.384;2022-12-31T17:16:57;11.50;;;5.93;;
56051;SDS011;41919;42.648;23.384;2022-12-31T17:22:06;15.65;;;7.05;;
56051;SDS011;41919;42.648;23.384;2022-12-31T17:24:37;13.05;;;6.78;;
56051;SDS011;41919;42.648;23.384;2022-12-31T17:27:06;16.30;;;8.50;;
56051;SDS011;41919;42.648;23.384;2022-12-31T17:29:33;15.02;;;8.13;;
56051;SDS011;41919;42.648;23.384;2022-12-31T17:32:00;13.48;;;7.55;;
56051;SDS011;41919;42.648;23.384;2022-12-31T17:34:35;17.27;;;8.65;;
56051;SDS011;41919;42.648;23.384;2022-12-31T17:42:24;23.75;;;12.48;;
56051;SDS011;41919;42.648;23.384;2022-12-31T17:44:54;26.75;;;12.15;;
56051;SDS011;41919;42.648;23.384;2022-12-31T17:47:22;23.88;;;11.63;;
56051;SDS011;41919;42.648;23.384;2022-12-31T17:49:48;31.00;;;12.48;;
56051;SDS011;41919;42.648;23.384;2022-12-31T17:52:14;29.77;;;14.10;;
56051;SDS011;41919;42.648;23.384;2022-12-31T17:54:40;21.95;;;11.63;;
56051;SDS011;41919;42.648;23.384;2022-12-31T17:57:06;26.98;;;13.63;;
56051;SDS011;41919;42.648;23.384;2022-12-31T17:59:47;29.13;;;13.48;;
56051;SDS011;41919;42.648;23.384;2022-12-31T18:02:12;27.58;;;13.20;;
56051;SDS011;41919;42.648;23.384;2022-12-31T18:04:38;31.65;;;13.93;;
56051;SDS011;41919;42.648;23.384;2022-12-31T18:07:03;22.08;;;12.25;;
56051;SDS011;41919;42.648;23.384;2022-12-31T18:09:29;25.48;;;11.75;;
56051;SDS011;41919;42.648;23.384;2022-12-31T18:11:54;22.17;;;11.20;;
56051;SDS011;41919;42.648;23.384;2022-12-31T18:14:19;25.92;;;12.60;;
56051;SDS011;41919;42.648;23.384;2022-12-31T18:16:45;22.17;;;11.20;;
56051;SDS011;41919;42.648;23.384;2022-12-31T18:19:12;25.52;;;12.45;;
56051;SDS011;41919;42.648;23.384;2022-12-31T18:21:40;29.13;;;13.45;;
56051;SDS011;41919;42.648;23.384;2022-12-31T18:24:08;24.65;;;12.52;;
56051;SDS011;41919;42.648;23.384;2022-12-31T18:26:38;24.45;;;12.55;;
56051;SDS011;41919;42.648;23.384;2022-12-31T18:29:12;29.20;;;12.80;;
56051;SDS011;41919;42.648;23.384;2022-12-31T18:31:43;25.27;;;11.85;;
56051;SDS011;41919;42.648;23.384;2022-12-31T18:34:11;21.45;;;12.32;;
56051;SDS011;41919;42.648;23.384;2022-12-31T18:36:39;21.45;;;10.68;;
56051;SDS011;41919;42.648;23.384;2022-12-31T18:39:04;16.92;;;9.70;;
56051;SDS011;41919;42.648;23.384;2022-12-31T18:41:43;15.48;;;9.45;;
56051;SDS011;41919;42.648;23.384;2022-12-31T18:46:40;19.77;;;10.45;;
56051;SDS011;41919;42.648;23.384;2022-12-31T18:49:06;16.95;;;9.77;;
56051;SDS011;41919;42.648;23.384;2022-12-31T18:51:32;20.20;;;10.27;;
56051;SDS011;41919;42.648;23.384;2022-12-31T18:53:58;18.58;;;10.50;;
56051;SDS011;41919;42.648;23.384;2022-12-31T18:56:25;19.77;;;10.88;;
56051;SDS011;41919;42.648;23.384;2022-12-31T18:58:51;30.65;;;16.35;;
56051;SDS011;41919;42.648;23.384;2022-12-31T19:01:23;24.88;;;12.00;;
56051;SDS011;41919;42.648;23.384;2022-12-31T19:03:51;22.63;;;11.95;;
56051;SDS011;41919;42.648;23.384;2022-12-31T19:06:17;20.20;;;10.48;;
56051;SDS011;41919;42.648;23.384;2022-12-31T19:08:43;17.08;;;10.55;;
56051;SDS011;41919;42.648;23.384;2022-12-31T19:11:10;19.42;;;10.32;;
56051;SDS011;41919;42.648;23.384;2022-12-31T19:13:37;20.05;;;9.85;;
56051;SDS011;41919;42.648;23.384;2022-12-31T19:16:03;23.35;;;11.80;;
56051;SDS011;41919;42.648;23.384;2022-12-31T19:18:29;25.58;;;12.55;;
56051;SDS011;41919;42.648;23.384;2022-12-31T19:20:54;24.45;;;14.77;;
56051;SDS011;41919;42.648;23.384;2022-12-31T19:23:20;18.85;;;11.15;;
56051;SDS011;41919;42.648;23.384;2022-12-31T19:25:46;21.35;;;11.20;;
56051;SDS011;41919;42.648;23.384;2022-12-31T19:28:22;22.05;;;11.95;;
56051;SDS011;41919;42.648;23.384;2022-12-31T19:30:49;21.73;;;11.63;;
56051;SDS011;41919;42.648;23.384;2022-12-31T19:33:15;21.98;;;11.68;;
56051;SDS011;41919;42.648;23.384;2022-12-31T19:35:41;20.65;;;10.95;;
56051;SDS011;41919;42.648;23.384;2022-12-31T19:38:23;25.38;;;12.98;;
56051;SDS011;41919;42.648;23.384;2022-12-31T19:40:50;20.10;;;11.73;;